UAE2CU OMDB-LTFM
Flight info
| Callsign | UAE2CU |
|---|---|
| Flight time | N/A |
| Altitude | 40000 |
| Route | RIDAP M557 TUMAK L602 GADSI M860 NINVA UM860 NAREN UT368 UMLEN UL718 ETESU UT888 SIV UL615 ERSEN |
| Aircraft | A359/H-SDE2E3GHIJ3J4J5LM1ORWXY/LB1D1 |
Departure
| Time | 2026-04-24 15:17 |
|---|---|
| Airport | Dubai International Airport (OMDB) |
Arrival
| Time | N/A |
|---|---|
| Airport | İstanbul Airport (LTFM) |
| Time | Latitude | Longitude | Altitude | Speed | Heading |
|---|---|---|---|---|---|
| 2026-04-24 14:43 | 25.24603 | 55.36441 | 31 ft | 0 kts | 31° |
| 2026-04-24 15:03 | 25.24585 | 55.36429 | 30 ft | 4 kts | 33° |
| 2026-04-24 15:03 | 25.24562 | 55.36412 | 30 ft | 4 kts | 34° |
| 2026-04-24 15:03 | 25.24542 | 55.36398 | 29 ft | 4 kts | 43° |
| 2026-04-24 15:04 | 25.24530 | 55.36381 | 30 ft | 4 kts | 81° |
| 2026-04-24 15:04 | 25.24530 | 55.36355 | 31 ft | 4 kts | 110° |
| 2026-04-24 15:04 | 25.24541 | 55.36329 | 29 ft | 3 kts | 120° |
| 2026-04-24 15:04 | 25.24545 | 55.36322 | 30 ft | 0 kts | 120° |
| 2026-04-24 15:09 | 25.24544 | 55.36324 | 31 ft | 2 kts | 119° |
| 2026-04-24 15:09 | 25.24521 | 55.36364 | 31 ft | 11 kts | 122° |
| 2026-04-24 15:09 | 25.24471 | 55.36461 | 33 ft | 18 kts | 117° |
| 2026-04-24 15:10 | 25.24451 | 55.36521 | 34 ft | 1 kts | 102° |
| 2026-04-24 15:10 | 25.24450 | 55.36566 | 34 ft | 11 kts | 85° |
| 2026-04-24 15:10 | 25.24503 | 55.36672 | 35 ft | 21 kts | 41° |
| 2026-04-24 15:10 | 25.24646 | 55.36775 | 35 ft | 28 kts | 31° |
| 2026-04-24 15:11 | 25.24783 | 55.36874 | 35 ft | 0 kts | 50° |
| 2026-04-24 15:11 | 25.24791 | 55.36888 | 35 ft | 8 kts | 58° |
| 2026-04-24 15:11 | 25.24778 | 55.36982 | 36 ft | 19 kts | 115° |
| 2026-04-24 15:11 | 25.24698 | 55.37139 | 38 ft | 26 kts | 121° |
| 2026-04-24 15:12 | 25.24627 | 55.37262 | 40 ft | 19 kts | 121° |
| 2026-04-24 15:12 | 25.24463 | 55.37552 | 44 ft | 13 kts | 123° |
| 2026-04-24 15:12 | 25.24417 | 55.37636 | 45 ft | 10 kts | 121° |
| 2026-04-24 15:13 | 25.24413 | 55.37642 | 45 ft | 0 kts | 121° |
| 2026-04-24 15:13 | 25.24412 | 55.37644 | 45 ft | 2 kts | 121° |
| 2026-04-24 15:13 | 25.24394 | 55.37684 | 46 ft | 10 kts | 107° |
| 2026-04-24 15:14 | 25.24399 | 55.37735 | 46 ft | 0 kts | 66° |
| 2026-04-24 15:14 | 25.24404 | 55.37743 | 46 ft | 6 kts | 56° |
| 2026-04-24 15:15 | 25.24465 | 55.37804 | 47 ft | 18 kts | 36° |
| 2026-04-24 15:15 | 25.24582 | 55.37890 | 49 ft | 22 kts | 33° |
| 2026-04-24 15:15 | 25.24705 | 55.37978 | 46 ft | 10 kts | 33° |
| 2026-04-24 15:15 | 25.24711 | 55.37982 | 46 ft | 1 kts | 32° |
| 2026-04-24 15:16 | 25.24791 | 55.38007 | 46 ft | 24 kts | 352° |
| 2026-04-24 15:16 | 25.24834 | 55.37968 | 46 ft | 2 kts | 308° |
| 2026-04-24 15:16 | 25.25021 | 55.37640 | 46 ft | 99 kts | 301° |
| 2026-04-24 15:16 | 25.25521 | 55.36724 | 34 ft | 177 kts | 302° |
| 2026-04-24 15:17 | 25.26252 | 55.35410 | 501 ft | 208 kts | 302° |
| 2026-04-24 15:17 | 25.26990 | 55.34005 | 1191 ft | 219 kts | 301° |
| 2026-04-24 15:17 | 25.27801 | 55.32520 | 1882 ft | 225 kts | 303° |
| 2026-04-24 15:17 | 25.28590 | 55.31123 | 2696 ft | 207 kts | 303° |
| 2026-04-24 15:18 | 25.29486 | 55.29931 | 3332 ft | 200 kts | 320° |
| 2026-04-24 15:18 | 25.30763 | 55.29413 | 3807 ft | 203 kts | 351° |
| 2026-04-24 15:18 | 25.32196 | 55.29391 | 3975 ft | 207 kts | 359° |
| 2026-04-24 15:18 | 25.33637 | 55.29461 | 3995 ft | 208 kts | 359° |
| 2026-04-24 15:19 | 25.35089 | 55.29528 | 3999 ft | 209 kts | 359° |
| 2026-04-24 15:19 | 25.36612 | 55.29591 | 3997 ft | 230 kts | 359° |
| 2026-04-24 15:19 | 25.38246 | 55.29637 | 3985 ft | 239 kts | 359° |
| 2026-04-24 15:19 | 25.39912 | 55.29803 | 4005 ft | 244 kts | 11° |
| 2026-04-24 15:20 | 25.41567 | 55.30433 | 4110 ft | 259 kts | 19° |
| 2026-04-24 15:20 | 25.43250 | 55.31220 | 4312 ft | 269 kts | 20° |
| 2026-04-24 15:20 | 25.44988 | 55.32045 | 4579 ft | 275 kts | 20° |
| 2026-04-24 15:20 | 25.46756 | 55.32881 | 4826 ft | 279 kts | 20° |